createdAt,value
2018-04-09T00:00:37.053Z,12.30
2018-04-09T00:03:04.613Z,13.20
2018-04-09T00:05:32.186Z,12.80
2018-04-09T00:07:59.758Z,12.50
2018-04-09T00:10:27.301Z,13.50
2018-04-09T00:12:54.871Z,13.17
2018-04-09T00:15:22.448Z,14.70
2018-04-09T00:17:49.992Z,12.90
2018-04-09T00:20:17.548Z,12.73
2018-04-09T00:22:45.117Z,13.90
2018-04-09T00:25:12.661Z,12.97
2018-04-09T00:27:40.216Z,13.10
2018-04-09T00:30:07.782Z,13.10
2018-04-09T00:32:35.341Z,12.93
2018-04-09T00:35:02.901Z,12.50
2018-04-09T00:37:30.445Z,12.37
2018-04-09T00:39:58.008Z,13.00
2018-04-09T00:42:25.560Z,13.20
2018-04-09T00:44:53.896Z,12.30
2018-04-09T00:47:21.435Z,13.50
2018-04-09T00:49:49.214Z,12.73
2018-04-09T00:52:16.754Z,12.13
2018-04-09T00:54:44.288Z,13.33
2018-04-09T00:57:11.845Z,11.30
2018-04-09T00:59:40.149Z,14.17
2018-04-09T01:02:07.710Z,13.60
2018-04-09T01:04:35.245Z,14.30
2018-04-09T01:07:02.825Z,12.63
2018-04-09T01:09:30.413Z,11.80
2018-04-09T01:11:57.981Z,13.27
2018-04-09T01:14:25.528Z,13.10
2018-04-09T01:16:53.099Z,13.87
2018-04-09T01:19:20.635Z,12.17
2018-04-09T01:21:48.202Z,13.40
2018-04-09T01:24:15.745Z,12.40
2018-04-09T01:26:43.309Z,13.40
2018-04-09T01:29:10.868Z,13.17
2018-04-09T01:31:38.407Z,12.77
2018-04-09T01:34:05.967Z,12.87
2018-04-09T01:36:33.505Z,14.47
2018-04-09T01:39:01.841Z,15.10
2018-04-09T01:41:29.386Z,12.53
2018-04-09T01:43:56.955Z,12.83
2018-04-09T01:46:24.486Z,14.70
2018-04-09T01:48:52.069Z,13.63
2018-04-09T01:51:19.856Z,13.30
2018-04-09T01:53:47.393Z,14.00
2018-04-09T01:56:14.931Z,13.57
2018-04-09T01:58:42.506Z,13.80
2018-04-09T02:01:10.060Z,13.50
2018-04-09T02:03:37.595Z,13.80
2018-04-09T02:06:05.914Z,13.60
2018-04-09T02:08:33.458Z,13.83
2018-04-09T02:11:01.015Z,14.27
2018-04-09T02:13:28.561Z,14.63
2018-04-09T02:15:56.883Z,14.27
2018-04-09T02:18:24.447Z,14.90
2018-04-09T02:20:51.988Z,13.60
2018-04-09T02:23:19.547Z,12.20
2018-04-09T02:25:47.087Z,12.90
2018-04-09T02:28:14.651Z,13.87
2018-04-09T02:30:42.224Z,13.40
2018-04-09T02:33:09.760Z,13.10
2018-04-09T02:35:37.301Z,13.23
2018-04-09T02:38:05.648Z,13.80
2018-04-09T02:40:33.220Z,13.00
2018-04-09T02:43:00.761Z,12.90
2018-04-09T02:45:28.353Z,12.90
2018-04-09T02:47:56.668Z,13.30
2018-04-09T02:50:24.281Z,13.27
2018-04-09T02:52:51.824Z,13.00
2018-04-09T02:55:19.377Z,13.80
2018-04-09T02:57:46.952Z,13.80
2018-04-09T03:00:14.516Z,12.50
2018-04-09T03:02:42.057Z,12.03
2018-04-09T03:05:09.633Z,12.30
2018-04-09T03:07:37.214Z,12.07
2018-04-09T03:10:05.527Z,13.27
2018-04-09T03:12:33.087Z,14.27
2018-04-09T03:15:00.652Z,13.50
2018-04-09T03:17:28.220Z,12.70
2018-04-09T03:19:55.792Z,14.07
2018-04-09T03:22:23.356Z,13.60
2018-04-09T03:24:50.897Z,12.73
2018-04-09T03:27:18.456Z,12.03
2018-04-09T03:29:46.003Z,12.33
2018-04-09T03:32:13.570Z,11.70
2018-04-09T03:34:41.150Z,11.77
2018-04-09T03:37:08.684Z,11.73
2018-04-09T03:39:36.258Z,12.97
2018-04-09T03:42:03.836Z,11.23
2018-04-09T03:44:31.374Z,11.73
2018-04-09T03:46:59.706Z,11.70
2018-04-09T03:49:28.018Z,12.30
2018-04-09T03:51:55.587Z,12.73
2018-04-09T03:54:23.151Z,12.40
2018-04-09T03:56:50.710Z,13.63
2018-04-09T03:59:18.252Z,12.83
2018-04-09T04:01:45.824Z,12.03
2018-04-09T04:04:13.368Z,13.50
2018-04-09T04:06:40.936Z,12.87
2018-04-09T04:09:08.493Z,11.90
2018-04-09T04:11:36.056Z,11.97
2018-04-09T04:14:03.608Z,11.80
2018-04-09T04:16:43.180Z,11.43
2018-04-09T04:19:22.731Z,11.67
2018-04-09T04:21:50.304Z,11.60
2018-04-09T04:24:17.844Z,11.60
2018-04-09T04:26:45.416Z,11.20
2018-04-09T04:29:12.995Z,11.60
2018-04-09T04:31:40.546Z,10.60
2018-04-09T04:34:08.118Z,11.13
2018-04-09T04:36:35.702Z,10.30
2018-04-09T04:39:04.037Z,11.10
2018-04-09T04:41:31.592Z,11.27
2018-04-09T04:43:59.179Z,11.60
2018-04-09T04:46:26.716Z,11.43
2018-04-09T04:48:54.308Z,10.80
2018-04-09T04:51:22.612Z,12.17
2018-04-09T04:53:50.155Z,11.67
2018-04-09T04:56:18.488Z,10.80
2018-04-09T04:58:46.068Z,11.30
2018-04-09T05:01:13.608Z,11.27
2018-04-09T05:03:41.171Z,10.10
2018-04-09T05:06:23.520Z,10.10
2018-04-09T05:11:42.541Z,9.77
2018-04-09T05:14:10.099Z,10.40
2018-04-09T05:16:37.664Z,9.70
2018-04-09T05:19:05.230Z,10.87
2018-04-09T05:21:32.793Z,9.50
2018-04-09T05:24:00.336Z,8.40
2018-04-09T05:26:27.904Z,9.03
2018-04-09T05:28:55.481Z,9.33
2018-04-09T05:31:23.024Z,8.80
2018-04-09T05:33:50.603Z,8.87
2018-04-09T05:36:18.161Z,8.60
2018-04-09T05:38:47.298Z,8.70
2018-04-09T05:41:15.649Z,8.70
2018-04-09T05:43:43.212Z,9.43
2018-04-09T05:48:40.595Z,10.10
2018-04-09T05:51:08.201Z,9.60
2018-04-09T05:53:35.719Z,8.30
2018-04-09T05:56:04.055Z,8.43
2018-04-09T05:58:31.605Z,9.53
2018-04-09T06:00:59.173Z,9.13
2018-04-09T06:03:28.666Z,8.60
2018-04-09T06:05:56.200Z,8.70
2018-04-09T06:08:23.763Z,10.40
2018-04-09T06:10:51.342Z,10.70
2018-04-09T06:13:19.647Z,9.33
2018-04-09T06:15:47.208Z,11.30
2018-04-09T06:18:14.755Z,10.53
2018-04-09T06:20:42.338Z,8.70
2018-04-09T06:23:09.876Z,9.80
2018-04-09T06:25:37.443Z,9.50
2018-04-09T06:28:04.980Z,8.93
2018-04-09T06:30:32.555Z,9.17
2018-04-09T06:33:00.096Z,9.30
2018-04-09T06:35:27.691Z,9.87
2018-04-09T06:37:55.244Z,9.80
2018-04-09T06:40:22.812Z,10.23
2018-04-09T06:42:50.374Z,8.97
2018-04-09T06:45:17.915Z,9.43
2018-04-09T06:47:45.480Z,9.50
2018-04-09T06:50:13.029Z,9.30
2018-04-09T06:52:40.595Z,8.83
2018-04-09T06:55:08.165Z,10.40
2018-04-09T06:57:35.711Z,10.60
2018-04-09T07:00:03.270Z,11.63
2018-04-09T07:02:30.816Z,12.43
2018-04-09T07:04:58.383Z,13.83
2018-04-09T07:07:25.964Z,14.97
2018-04-09T07:09:54.290Z,18.00
2018-04-09T07:12:21.856Z,18.03
2018-04-09T07:14:49.427Z,16.30
2018-04-09T07:17:16.966Z,16.30
2018-04-09T07:19:44.564Z,14.40
2018-04-09T07:22:12.879Z,13.83
2018-04-09T07:24:40.556Z,11.87
2018-04-09T07:27:08.161Z,11.90
2018-04-09T07:29:37.222Z,12.43
2018-04-09T07:32:04.793Z,11.50
2018-04-09T07:34:32.392Z,13.60
2018-04-09T07:37:00.696Z,13.17
2018-04-09T07:39:28.236Z,14.00
2018-04-09T07:41:56.563Z,15.70
2018-04-09T07:44:24.153Z,14.63
2018-04-09T07:46:52.480Z,16.93
2018-04-09T07:49:20.060Z,17.73
2018-04-09T07:51:47.626Z,16.67
2018-04-09T07:54:15.191Z,16.97
2018-04-09T07:56:42.768Z,17.13
2018-04-09T07:59:10.331Z,17.40
2018-04-09T08:01:37.869Z,17.90
2018-04-09T08:04:05.446Z,16.30
2018-04-09T08:06:32.984Z,16.70
2018-04-09T08:09:00.547Z,17.13
2018-04-09T08:11:28.117Z,18.57
2018-04-09T08:13:55.690Z,16.50
2018-04-09T08:16:23.236Z,17.13
2018-04-09T08:18:50.811Z,16.67
2018-04-09T08:21:19.663Z,17.20
2018-04-09T08:23:47.239Z,18.00
2018-04-09T08:26:14.789Z,16.00
2018-04-09T08:28:42.398Z,15.37
2018-04-09T08:31:10.704Z,17.23
2018-04-09T08:33:38.291Z,15.90
2018-04-09T08:36:05.855Z,16.03
2018-04-09T08:38:33.399Z,14.07
2018-04-09T08:41:02.302Z,14.50
2018-04-09T08:43:29.842Z,15.03
2018-04-09T08:45:57.416Z,14.10
2018-04-09T08:48:24.955Z,15.30
2018-04-09T08:50:52.513Z,13.33
2018-04-09T08:53:20.075Z,12.53
2018-04-09T08:55:47.611Z,14.10
2018-04-09T08:58:15.936Z,14.00
2018-04-09T09:00:43.472Z,13.60
2018-04-09T09:03:11.041Z,14.47
2018-04-09T09:05:38.623Z,14.80
2018-04-09T09:08:06.174Z,12.80
2018-04-09T09:10:33.721Z,14.47
2018-04-09T09:13:01.288Z,15.73
2018-04-09T09:15:28.901Z,15.20
2018-04-09T09:17:56.419Z,14.90
2018-04-09T09:20:23.994Z,13.50
2018-04-09T09:22:51.571Z,13.90
2018-04-09T09:25:19.135Z,13.80
2018-04-09T09:27:46.673Z,13.83
2018-04-09T09:30:14.232Z,14.07
2018-04-09T09:32:41.772Z,14.97
2018-04-09T09:35:10.104Z,15.00
2018-04-09T09:37:38.408Z,15.37
2018-04-09T09:40:05.972Z,14.73
2018-04-09T09:42:33.537Z,14.03
2018-04-09T09:45:01.838Z,14.80
2018-04-09T09:47:29.405Z,13.50
2018-04-09T09:49:57.717Z,13.57
2018-04-09T09:52:26.044Z,16.27
2018-04-09T09:54:53.596Z,13.20
2018-04-09T09:57:21.146Z,15.00
2018-04-09T09:59:48.709Z,15.13
2018-04-09T10:02:16.248Z,14.50
2018-04-09T10:04:43.824Z,13.50
2018-04-09T10:07:11.374Z,12.67
2018-04-09T10:09:38.953Z,12.03
2018-04-09T10:12:06.501Z,11.20
2018-04-09T10:14:34.108Z,12.90
2018-04-09T10:17:03.156Z,11.07
2018-04-09T10:19:30.744Z,11.60
2018-04-09T10:21:58.288Z,11.63
2018-04-09T10:24:25.832Z,11.00
2018-04-09T10:26:53.398Z,10.87
2018-04-09T10:29:20.972Z,10.67
2018-04-09T10:31:48.541Z,10.30
2018-04-09T10:34:16.087Z,10.40
2018-04-09T10:36:43.639Z,7.30
2018-04-09T10:39:11.211Z,7.97
2018-04-09T10:41:38.857Z,8.77
2018-04-09T10:44:06.392Z,7.20
2018-04-09T10:46:34.704Z,7.50
2018-04-09T10:49:04.058Z,6.97
2018-04-09T10:51:32.369Z,6.47
2018-04-09T10:53:59.951Z,7.33
2018-04-09T10:56:27.538Z,6.17
2018-04-09T10:58:55.153Z,6.23
2018-04-09T11:01:22.696Z,5.13
2018-04-09T11:03:50.284Z,5.07
2018-04-09T11:06:17.829Z,4.20
2018-04-09T11:08:45.395Z,4.77
2018-04-09T11:11:12.999Z,5.10
2018-04-09T11:13:41.357Z,4.50
2018-04-09T11:16:08.891Z,5.10
2018-04-09T11:18:36.436Z,3.50
2018-04-09T11:21:04.764Z,3.70
2018-04-09T11:23:32.335Z,2.83
2018-04-09T11:25:59.873Z,3.00
2018-04-09T11:28:27.460Z,3.00
2018-04-09T11:30:55.086Z,2.70
2018-04-09T11:33:22.620Z,2.43
2018-04-09T11:35:50.182Z,3.60
2018-04-09T11:38:17.727Z,2.20
2018-04-09T11:40:46.064Z,3.07
2018-04-09T11:43:13.649Z,2.57
2018-04-09T11:45:41.182Z,3.10
2018-04-09T11:48:08.737Z,2.40
2018-04-09T11:50:36.284Z,2.50
2018-04-09T11:53:03.838Z,2.10
2018-04-09T11:55:31.396Z,2.47
2018-04-09T12:00:26.392Z,2.70
2018-04-09T12:02:54.716Z,2.40
2018-04-09T12:05:22.291Z,2.40
2018-04-09T12:07:49.822Z,2.60
2018-04-09T12:10:17.363Z,2.90
2018-04-09T12:12:44.919Z,2.70
2018-04-09T12:15:12.455Z,3.10
2018-04-09T12:17:40.778Z,2.70
2018-04-09T12:20:08.322Z,2.43
2018-04-09T12:22:35.869Z,2.73
2018-04-09T12:25:04.171Z,2.57
2018-04-09T12:27:31.727Z,2.10
2018-04-09T12:29:59.263Z,2.50
2018-04-09T12:32:27.587Z,2.50
2018-04-09T12:34:55.114Z,2.70
2018-04-09T12:37:22.662Z,2.57
2018-04-09T12:39:50.966Z,3.10
2018-04-09T12:42:18.519Z,2.67
2018-04-09T12:44:46.051Z,2.90
2018-04-09T12:47:14.393Z,2.70
2018-04-09T12:49:41.925Z,2.50
2018-04-09T12:52:09.475Z,3.33
2018-04-09T12:54:37.029Z,2.80
2018-04-09T12:57:04.604Z,3.07
2018-04-09T12:59:32.129Z,2.53
2018-04-09T13:02:00.432Z,3.27
2018-04-09T13:04:27.989Z,2.93
2018-04-09T13:06:55.537Z,2.60
2018-04-09T13:09:23.095Z,2.70
2018-04-09T13:11:50.628Z,2.70
2018-04-09T13:14:18.962Z,2.63
2018-04-09T13:16:46.529Z,2.03
2018-04-09T13:19:14.060Z,2.63
2018-04-09T13:21:41.604Z,2.03
2018-04-09T13:24:09.901Z,2.20
2018-04-09T13:26:38.223Z,1.90
2018-04-09T13:29:05.755Z,2.50
2018-04-09T13:31:33.331Z,2.00
2018-04-09T13:34:00.874Z,2.23
2018-04-09T13:36:28.434Z,1.87
2018-04-09T13:38:56.003Z,2.20
2018-04-09T13:41:23.553Z,2.30
2018-04-09T13:43:51.128Z,1.90
2018-04-09T13:46:18.652Z,1.87
2018-04-09T13:48:46.191Z,1.97
2018-04-09T13:51:14.505Z,2.30
2018-04-09T13:53:42.039Z,2.27
2018-04-09T13:56:10.373Z,1.80
2018-04-09T13:58:37.919Z,1.90
2018-04-09T14:01:05.471Z,1.90
2018-04-09T14:03:33.006Z,1.97
2018-04-09T14:06:00.569Z,2.00
2018-04-09T14:08:28.262Z,1.80
2018-04-09T14:10:55.799Z,2.00
2018-04-09T14:13:23.330Z,2.03
2018-04-09T14:15:51.662Z,2.20
2018-04-09T14:18:19.201Z,2.67
2018-04-09T14:20:46.758Z,2.00
2018-04-09T14:23:14.309Z,1.73
2018-04-09T14:25:41.853Z,1.87
2018-04-09T14:28:09.426Z,1.90
2018-04-09T14:30:36.960Z,2.03
2018-04-09T14:33:06.407Z,1.70
2018-04-09T14:35:33.945Z,1.90
2018-04-09T14:38:01.529Z,1.97
2018-04-09T14:40:29.090Z,1.83
2018-04-09T14:42:56.746Z,2.27
2018-04-09T14:45:24.314Z,1.97
2018-04-09T14:47:51.892Z,1.93
2018-04-09T14:50:19.438Z,2.10
2018-04-09T14:52:47.016Z,1.63
2018-04-09T14:55:14.556Z,1.90
2018-04-09T14:57:42.216Z,1.83
2018-04-09T15:00:09.784Z,1.20
2018-04-09T15:02:37.315Z,1.47
2018-04-09T15:05:04.889Z,1.43
2018-04-09T15:07:32.427Z,1.50
2018-04-09T15:10:02.086Z,1.90
2018-04-09T15:12:30.458Z,2.00
2018-04-09T15:14:58.017Z,1.90
2018-04-09T15:17:25.569Z,1.73
2018-04-09T15:19:53.101Z,1.50
2018-04-09T15:22:20.660Z,1.50
2018-04-09T15:24:48.221Z,1.70
2018-04-09T15:27:15.772Z,2.40
2018-04-09T15:29:44.106Z,2.07
2018-04-09T15:32:11.641Z,2.40
2018-04-09T15:34:39.214Z,2.20
2018-04-09T15:37:06.752Z,2.60
2018-04-09T15:39:34.302Z,2.37
2018-04-09T15:42:01.855Z,2.90
2018-04-09T15:44:29.394Z,2.80
2018-04-09T15:46:57.719Z,2.93
2018-04-09T15:49:25.278Z,3.00
2018-04-09T15:51:52.805Z,3.30
2018-04-09T15:54:21.127Z,3.50
2018-04-09T15:56:48.719Z,3.00
2018-04-09T15:59:16.273Z,3.30
2018-04-09T16:01:43.851Z,3.20
2018-04-09T16:04:12.175Z,5.63
2018-04-09T16:06:39.705Z,3.47
2018-04-09T16:09:08.164Z,3.23
2018-04-09T16:11:35.700Z,4.10
2018-04-09T16:14:03.253Z,3.17
2018-04-09T16:16:30.794Z,3.83
2018-04-09T16:18:58.371Z,2.83
2018-04-09T16:21:25.947Z,3.30
2018-04-09T16:23:54.246Z,2.33
2018-04-09T16:26:22.602Z,3.07
2018-04-09T16:28:50.181Z,2.60
2018-04-09T16:31:17.753Z,2.63
2018-04-09T16:33:46.057Z,3.03
2018-04-09T16:36:13.598Z,2.80
2018-04-09T16:38:41.922Z,2.20
2018-04-09T16:41:09.459Z,2.80
2018-04-09T16:43:37.007Z,2.60
2018-04-09T16:46:04.690Z,2.63
2018-04-09T16:48:32.254Z,2.23
2018-04-09T16:50:59.860Z,2.47
2018-04-09T16:53:27.399Z,2.90
2018-04-09T16:55:54.939Z,2.47
2018-04-09T16:58:22.514Z,2.77
2018-04-09T17:00:50.047Z,2.63
2018-04-09T17:03:17.605Z,2.57
2018-04-09T17:05:45.173Z,3.43
2018-04-09T17:08:12.733Z,3.50
2018-04-09T17:10:41.223Z,3.53
2018-04-09T17:13:08.754Z,3.67
2018-04-09T17:15:36.301Z,2.07
2018-04-09T17:18:04.630Z,2.20
2018-04-09T17:20:32.167Z,2.70
2018-04-09T17:22:59.742Z,3.10
2018-04-09T17:25:27.405Z,3.43
2018-04-09T17:27:54.969Z,3.33
2018-04-09T17:30:22.543Z,3.27
2018-04-09T17:32:51.610Z,2.97
2018-04-09T17:35:19.146Z,2.60
2018-04-09T17:37:46.714Z,2.50
2018-04-09T17:40:14.241Z,2.40
2018-04-09T17:42:42.595Z,4.23
2018-04-09T17:45:10.175Z,2.77
2018-04-09T17:47:37.709Z,3.10
2018-04-09T17:50:05.265Z,2.40
2018-04-09T17:52:32.804Z,2.40
2018-04-09T17:55:00.380Z,1.90
2018-04-09T17:57:27.906Z,2.43
2018-04-09T17:59:55.485Z,2.37
2018-04-09T18:02:23.034Z,2.10
2018-04-09T18:04:50.573Z,2.10
2018-04-09T18:07:18.915Z,2.00
2018-04-09T18:09:46.472Z,2.70
2018-04-09T18:12:14.012Z,2.20
2018-04-09T18:14:41.543Z,2.50
2018-04-09T18:17:09.093Z,2.60
2018-04-09T18:19:37.389Z,2.70
2018-04-09T18:22:04.941Z,2.07
2018-04-09T18:24:32.477Z,2.30
2018-04-09T18:27:00.798Z,2.77
2018-04-09T18:29:28.326Z,2.03
2018-04-09T18:31:56.647Z,2.00
2018-04-09T18:34:24.180Z,2.00
2018-04-09T18:36:51.733Z,2.10
2018-04-09T18:39:19.286Z,2.00
2018-04-09T18:41:46.827Z,1.87
2018-04-09T18:44:15.145Z,2.53
2018-04-09T18:46:42.702Z,1.93
2018-04-09T18:49:10.260Z,2.23
2018-04-09T18:51:37.795Z,2.33
2018-04-09T18:54:06.116Z,2.43
2018-04-09T18:56:33.646Z,2.10
2018-04-09T18:59:01.206Z,2.03
2018-04-09T19:01:28.741Z,3.03
2018-04-09T19:03:57.065Z,2.50
2018-04-09T19:06:24.630Z,2.67
2018-04-09T19:08:52.166Z,2.33
2018-04-09T19:11:19.739Z,2.50
2018-04-09T19:13:47.309Z,2.10
2018-04-09T19:16:14.865Z,2.57
2018-04-09T19:18:42.436Z,2.10
2018-04-09T19:21:09.985Z,2.17
2018-04-09T19:23:37.560Z,2.17
2018-04-09T19:26:05.104Z,2.43
2018-04-09T19:28:32.630Z,2.20
2018-04-09T19:31:00.950Z,2.57
2018-04-09T19:33:28.482Z,2.67
2018-04-09T19:36:01.687Z,2.47
2018-04-09T19:38:34.943Z,1.90
2018-04-09T19:41:03.272Z,2.00
2018-04-09T19:43:30.809Z,2.10
2018-04-09T19:45:58.363Z,2.83
2018-04-09T19:48:25.901Z,2.60
2018-04-09T19:50:54.222Z,3.20
2018-04-09T19:53:21.762Z,2.90
2018-04-09T19:55:49.339Z,3.10
2018-04-09T19:58:17.646Z,2.80
2018-04-09T20:00:45.238Z,3.10
2018-04-09T20:03:13.590Z,2.77
2018-04-09T20:05:41.122Z,2.17
2018-04-09T20:08:08.723Z,2.90
2018-04-09T20:10:36.240Z,2.80
2018-04-09T20:13:03.792Z,2.80
2018-04-09T20:15:31.350Z,2.43
2018-04-09T20:17:58.883Z,2.67
2018-04-09T20:20:27.205Z,3.03
2018-04-09T20:22:54.733Z,2.20
2018-04-09T20:25:23.053Z,2.30
2018-04-09T20:27:50.582Z,2.10
2018-04-09T20:30:18.239Z,2.53
2018-04-09T20:32:45.808Z,2.90
2018-04-09T20:35:13.383Z,2.60
2018-04-09T20:37:40.937Z,2.90
2018-04-09T20:40:08.469Z,2.60
2018-04-09T20:42:36.785Z,3.57
2018-04-09T20:45:04.317Z,2.80
2018-04-09T20:47:31.881Z,3.20
2018-04-09T20:49:59.453Z,2.60
2018-04-09T20:52:26.985Z,3.03
2018-04-09T20:54:55.395Z,2.50
2018-04-09T20:57:22.946Z,2.77
2018-04-09T20:59:50.527Z,2.27
2018-04-09T21:02:18.058Z,2.60
2018-04-09T21:04:45.630Z,3.07
2018-04-09T21:07:13.177Z,4.20
2018-04-09T21:09:40.708Z,2.60
2018-04-09T21:12:09.135Z,2.50
2018-04-09T21:14:36.682Z,2.67
2018-04-09T21:17:04.241Z,3.30
2018-04-09T21:19:31.792Z,4.00
2018-04-09T21:21:59.343Z,2.73
2018-04-09T21:24:27.642Z,2.60
2018-04-09T21:26:55.199Z,2.97
2018-04-09T21:29:22.739Z,2.80
2018-04-09T21:31:51.054Z,2.80
2018-04-09T21:34:18.586Z,5.53
2018-04-09T21:36:46.142Z,2.70
2018-04-09T21:39:13.677Z,2.60
2018-04-09T21:41:41.253Z,2.77
2018-04-09T21:44:09.593Z,2.97
2018-04-09T21:46:37.126Z,3.50
2018-04-09T21:49:04.690Z,2.80
2018-04-09T21:51:32.228Z,4.10
2018-04-09T21:53:59.797Z,3.87
2018-04-09T21:56:27.331Z,3.23
2018-04-09T21:58:55.702Z,2.97
2018-04-09T22:01:23.227Z,3.37
2018-04-09T22:03:50.812Z,3.30
2018-04-09T22:06:18.345Z,3.40
2018-04-09T22:08:45.878Z,4.10
2018-04-09T22:11:13.437Z,3.80
2018-04-09T22:13:40.968Z,3.33
2018-04-09T22:16:08.649Z,3.30
2018-04-09T22:18:36.182Z,3.83
2018-04-09T22:21:04.493Z,3.27
2018-04-09T22:23:32.049Z,3.23
2018-04-09T22:26:00.365Z,3.60
2018-04-09T22:28:27.899Z,3.57
2018-04-09T22:30:55.459Z,4.93
2018-04-09T22:33:22.997Z,4.07
2018-04-09T22:35:50.561Z,3.57
2018-04-09T22:38:18.094Z,3.73
2018-04-09T22:40:46.424Z,4.37
2018-04-09T22:43:13.980Z,4.50
2018-04-09T22:45:41.514Z,3.60
2018-04-09T22:48:09.080Z,3.97
2018-04-09T22:50:36.658Z,3.70
2018-04-09T22:53:04.186Z,3.20
2018-04-09T22:55:32.486Z,3.53
2018-04-09T22:58:00.038Z,3.53
2018-04-09T23:00:27.568Z,3.27
2018-04-09T23:02:55.886Z,3.07
2018-04-09T23:05:23.459Z,3.27
2018-04-09T23:07:50.991Z,3.37
2018-04-09T23:10:18.554Z,3.03
2018-04-09T23:12:46.105Z,2.47
2018-04-09T23:15:13.661Z,3.00
2018-04-09T23:17:41.958Z,3.23
2018-04-09T23:20:09.510Z,4.13
2018-04-09T23:22:37.059Z,3.30
2018-04-09T23:25:05.349Z,3.50
2018-04-09T23:27:32.917Z,2.70
2018-04-09T23:30:00.454Z,3.33
2018-04-09T23:32:28.765Z,3.47
2018-04-09T23:34:56.299Z,3.30
2018-04-09T23:37:23.907Z,2.70
2018-04-09T23:39:51.426Z,4.03
2018-04-09T23:42:18.993Z,3.23
2018-04-09T23:44:46.568Z,3.37
2018-04-09T23:47:14.102Z,3.40
2018-04-09T23:49:41.659Z,3.43
2018-04-09T23:52:09.959Z,3.47
2018-04-09T23:54:37.507Z,3.67
2018-04-09T23:57:05.039Z,3.57
2018-04-09T23:59:33.360Z,4.70
